Terminal Aerodrome Forecast
Issued by NWS

Home | Current Version | Previous Version | Text Only | Print | Product List | Glossary On
Versions: 1 2 3 4 5 6 7 8 9 10 11 12 13 14 15 16 17 18 19
000
FTUS43 KABR 232300
TAFATY
TAF
KATY 232325Z 2400/2424 16015G23KT P6SM -RA OVC015
     FM240100 15010KT P6SM OVC015
     FM240700 17009KT 2SM BR OVC007
     FM241600 18008KT P6SM OVC015
     FM242000 19008KT P6SM SKC=

USA.gov is the U.S. government's official web portal to all federal, state and local government web resources and services.